This is the latest recevied weather packets stored in our database for station/object VK3BKO-13. If no packets are shown the sender has not sent any weather packets the latest 10 day(s).
| Time | Temp. | Humidity | Pressure | Rain* | Wind** | Luminosity | Snow |
|---|---|---|---|---|---|---|---|
| 1777759324 | 20° C | 72% | 1011.2 hPa | 0 mm | - | 38 W/m² | - |
| 1777758424 | 20° C | 73% | 1011.2 hPa | 0 mm | - | 21 W/m² | - |
| 1777757523 | 19.44° C | 73% | 1011.2 hPa | 0 mm | - | 5 W/m² | - |
| 1777756624 | 19.44° C | 72% | 1011.2 hPa | 0 mm | - | 2 W/m² | - |
| 1777755724 | 19.44° C | 72% | 1011.5 hPa | 0 mm | - | 1 W/m² | - |
| 1777754824 | 19.44° C | 71% | 1011.9 hPa | 0 mm | - | 0 W/m² | - |
| 1777753924 | 20° C | 69% | 1012.2 hPa | 0 mm | - | 0 W/m² | - |
| 1777753024 | 20.56° C | 66% | 1011.9 hPa | 0 mm | - | 0 W/m² | - |
| 1777752124 | 20.56° C | 65% | 1011.9 hPa | 0 mm | - | 0 W/m² | - |
| 1777751224 | 21.11° C | 63% | 1011.5 hPa | 0 mm | - | 0 W/m² | - |
| 1777750324 | 21.11° C | 62% | 1011.5 hPa | 0 mm | - | 0 W/m² | - |
| 1777749424 | 21.67° C | 61% | 1011.9 hPa | 0 mm | - | 0 W/m² | - |
| 1777748524 | 21.67° C | 60% | 1011.5 hPa | 0 mm | - | 0 W/m² | - |
| 1777747624 | 21.67° C | 60% | 1011.5 hPa | 0 mm | - | 0 W/m² | - |
| 1777746724 | 21.11° C | 61% | 1011.2 hPa | 0 mm | - | 0 W/m² | - |
| 1777745824 | 20.56° C | 63% | 1011.5 hPa | 0 mm | - | 0 W/m² | - |
| 1777744923 | 20.56° C | 63% | 1011.5 hPa | 0 mm | - | 0 W/m² | - |
| 1777744024 | 20.56° C | 64% | 1011.9 hPa | 0 mm | - | 0 W/m² | - |
| 1777743124 | 20° C | 64% | 1011.5 hPa | 0 mm | - | 0 W/m² | - |
| 1777742224 | 20° C | 65% | 1011.9 hPa | 0 mm | - | 0 W/m² | - |
| 1777741324 | 18.89° C | 69% | 1011.9 hPa | 0 mm | - | 0 W/m² | - |
| 1777740424 | 17.78° C | 79% | 1011.9 hPa | 0 mm | - | 0 W/m² | - |
| 1777739524 | 17.22° C | 78% | 1012.2 hPa | 0 mm | - | 0 W/m² | - |
| 1777738624 | 17.78° C | 77% | 1012.2 hPa | 0 mm | - | 0 W/m² | - |
| 1777737723 | 17.78° C | 77% | 1012.6 hPa | 0 mm | - | 0 W/m² | - |
* Rain latest hour (hover to see other rain measurements)
** Current wind speed in m/s (hover to see current wind gust speed)